ウラジオストク の空港の天気 - METARとTAF

ウラジオストク空港 ( UHWW / VVO ) - ロシア ウラジオストク
飛行場実況気象(Metar)
観測時間11/27 18:30 VLAT (11/27 08:30 UTC)
風向・風速静穏 0m/s
視程10km以上
天気現象
全天の4割程度の雲 雲底高度 1340m
気温-4℃
湿度50%
気圧1023hPa
METARUHWW 270830Z 00000MPS 9999 SCT044 M04/M13 Q1023 R25L/0///70 NOSIG RMK QFE766
過去の天気等 Google飛行場航空写真 Wunderground天気予報

過去48時間のMETAR

飛行場予報(TAF)
発表時間: 11/27 18:00 VLAT (11/27 08:00 UTC)
予報対象時間: 27日19時 VLAT ~ 28日19時 VLAT
風向・風速南南西 3m/s 瞬間風速 8m/s
視程10km以上
全天の8割程度の雲 雲底高度 610m
27日19時 VLAT ~ 27日23時 VLAT に一時的に
視程6000m
天気現象弱いしゅう雪
全天の8割程度の積乱雲 雲底高度 490m
27日23時 VLAT ~ 28日3時 VLAT に徐々に
視程6000m
天気現象弱いしゅう雪雨
少しの雲 雲底高度 90m
全天の8割程度の積乱雲 雲底高度 490m
28日4時 VLAT ~ 28日5時 VLAT に徐々に
風向・風速東南東 3m/s
28日10時 VLAT ~ 28日13時 VLAT に徐々に
風向・風速北西 3m/s 瞬間風速 8m/s
TAF UHWW 270800Z 2709/2809 20003G08MPS 9999 BKN020
TEMPO 2709/2713 6000 -SHSN BKN016CB
BECMG 2713/2717 6000 -SHSNRA FEW003 BKN016CB
BECMG 2718/2719 12003MPS
BECMG 2800/2803 32003G08MPS